sensor_id;sensor_type;location;lat;lon;timestamp;temperature;humidity
33741;DHT22;20065;48.380;10.892;2023-08-01T00:01:53;19.60;99.90
33741;DHT22;20065;48.380;10.892;2023-08-01T00:04:39;19.60;99.90
33741;DHT22;20065;48.380;10.892;2023-08-01T00:07:29;19.60;99.90
33741;DHT22;20065;48.380;10.892;2023-08-01T00:10:15;19.60;99.90
33741;DHT22;20065;48.380;10.892;2023-08-01T00:13:04;19.60;99.90
33741;DHT22;20065;48.380;10.892;2023-08-01T00:15:50;19.50;99.90
33741;DHT22;20065;48.380;10.892;2023-08-01T00:18:36;19.60;99.90
33741;DHT22;20065;48.380;10.892;2023-08-01T00:21:22;19.60;99.90
33741;DHT22;20065;48.380;10.892;2023-08-01T00:24:08;19.70;99.90
33741;DHT22;20065;48.380;10.892;2023-08-01T00:26:55;19.70;99.90
33741;DHT22;20065;48.380;10.892;2023-08-01T00:29:44;19.80;99.90
33741;DHT22;20065;48.380;10.892;2023-08-01T00:32:31;19.70;99.90
33741;DHT22;20065;48.380;10.892;2023-08-01T00:35:17;19.80;99.90
33741;DHT22;20065;48.380;10.892;2023-08-01T00:38:03;19.70;99.90
33741;DHT22;20065;48.380;10.892;2023-08-01T00:40:49;19.70;99.90
33741;DHT22;20065;48.380;10.892;2023-08-01T00:43:36;19.70;99.90
33741;DHT22;20065;48.380;10.892;2023-08-01T00:46:22;19.70;99.90
33741;DHT22;20065;48.380;10.892;2023-08-01T00:49:08;19.80;99.90
33741;DHT22;20065;48.380;10.892;2023-08-01T00:51:54;19.70;99.90
33741;DHT22;20065;48.380;10.892;2023-08-01T00:54:43;19.70;99.90
33741;DHT22;20065;48.380;10.892;2023-08-01T00:57:29;19.60;99.90
33741;DHT22;20065;48.380;10.892;2023-08-01T01:00:16;19.60;99.90
33741;DHT22;20065;48.380;10.892;2023-08-01T01:03:02;19.50;99.90
33741;DHT22;20065;48.380;10.892;2023-08-01T01:08:50;19.20;99.90
33741;DHT22;20065;48.380;10.892;2023-08-01T01:11:36;19.10;99.90
33741;DHT22;20065;48.380;10.892;2023-08-01T01:14:22;19.00;99.90
33741;DHT22;20065;48.380;10.892;2023-08-01T01:17:08;19.10;99.90
33741;DHT22;20065;48.380;10.892;2023-08-01T01:19:55;19.10;99.90
33741;DHT22;20065;48.380;10.892;2023-08-01T01:22:41;19.20;99.90
33741;DHT22;20065;48.380;10.892;2023-08-01T01:25:30;19.40;99.90
33741;DHT22;20065;48.380;10.892;2023-08-01T01:28:17;19.50;99.90
33741;DHT22;20065;48.380;10.892;2023-08-01T01:31:03;19.50;99.90
33741;DHT22;20065;48.380;10.892;2023-08-01T01:33:50;19.50;99.90
33741;DHT22;20065;48.380;10.892;2023-08-01T01:36:36;19.40;99.90
33741;DHT22;20065;48.380;10.892;2023-08-01T01:39:22;19.30;99.90
33741;DHT22;20065;48.380;10.892;2023-08-01T01:42:10;19.30;99.90
33741;DHT22;20065;48.380;10.892;2023-08-01T01:44:57;19.30;99.90
33741;DHT22;20065;48.380;10.892;2023-08-01T01:47:43;19.20;99.90
33741;DHT22;20065;48.380;10.892;2023-08-01T01:50:32;19.20;99.90
33741;DHT22;20065;48.380;10.892;2023-08-01T01:53:20;19.20;99.90
33741;DHT22;20065;48.380;10.892;2023-08-01T01:56:07;19.30;99.90
33741;DHT22;20065;48.380;10.892;2023-08-01T01:58:53;19.30;99.90
33741;DHT22;20065;48.380;10.892;2023-08-01T02:01:39;19.40;99.90
33741;DHT22;20065;48.380;10.892;2023-08-01T02:04:25;19.50;99.90
33741;DHT22;20065;48.380;10.892;2023-08-01T02:07:12;19.60;99.90
33741;DHT22;20065;48.380;10.892;2023-08-01T02:10:00;19.50;99.90
33741;DHT22;20065;48.380;10.892;2023-08-01T02:12:49;19.50;99.90
33741;DHT22;20065;48.380;10.892;2023-08-01T02:15:36;19.60;99.90
33741;DHT22;20065;48.380;10.892;2023-08-01T02:18:26;19.60;99.90
33741;DHT22;20065;48.380;10.892;2023-08-01T02:21:12;19.60;99.90
33741;DHT22;20065;48.380;10.892;2023-08-01T02:23:58;19.60;99.90
33741;DHT22;20065;48.380;10.892;2023-08-01T02:26:45;19.70;99.90
33741;DHT22;20065;48.380;10.892;2023-08-01T02:29:31;19.70;99.90
33741;DHT22;20065;48.380;10.892;2023-08-01T02:32:17;19.50;99.90
33741;DHT22;20065;48.380;10.892;2023-08-01T02:35:04;19.30;99.90
33741;DHT22;20065;48.380;10.892;2023-08-01T02:37:50;19.20;99.90
33741;DHT22;20065;48.380;10.892;2023-08-01T02:40:37;19.00;99.90
33741;DHT22;20065;48.380;10.892;2023-08-01T02:43:23;18.80;99.90
33741;DHT22;20065;48.380;10.892;2023-08-01T02:46:09;18.50;99.90
33741;DHT22;20065;48.380;10.892;2023-08-01T02:48:56;18.40;99.90
33741;DHT22;20065;48.380;10.892;2023-08-01T02:51:42;18.30;99.90
33741;DHT22;20065;48.380;10.892;2023-08-01T02:54:28;18.20;99.90
33741;DHT22;20065;48.380;10.892;2023-08-01T02:57:14;18.20;99.90
33741;DHT22;20065;48.380;10.892;2023-08-01T03:00:00;18.40;99.90
33741;DHT22;20065;48.380;10.892;2023-08-01T03:02:50;18.20;99.90
33741;DHT22;20065;48.380;10.892;2023-08-01T03:05:37;18.20;99.90
33741;DHT22;20065;48.380;10.892;2023-08-01T03:08:24;18.10;99.90
33741;DHT22;20065;48.380;10.892;2023-08-01T03:11:10;17.90;99.90
33741;DHT22;20065;48.380;10.892;2023-08-01T03:13:57;18.00;99.90
33741;DHT22;20065;48.380;10.892;2023-08-01T03:16:43;17.90;99.90
33741;DHT22;20065;48.380;10.892;2023-08-01T03:19:31;17.80;99.90
33741;DHT22;20065;48.380;10.892;2023-08-01T03:22:17;17.70;99.90
33741;DHT22;20065;48.380;10.892;2023-08-01T03:25:04;17.80;99.90
33741;DHT22;20065;48.380;10.892;2023-08-01T03:27:53;17.60;99.90
33741;DHT22;20065;48.380;10.892;2023-08-01T03:30:40;17.50;99.90
33741;DHT22;20065;48.380;10.892;2023-08-01T03:33:26;17.50;99.90
33741;DHT22;20065;48.380;10.892;2023-08-01T03:36:12;17.40;99.90
33741;DHT22;20065;48.380;10.892;2023-08-01T03:38:59;17.30;99.90
33741;DHT22;20065;48.380;10.892;2023-08-01T03:41:45;17.20;99.90
33741;DHT22;20065;48.380;10.892;2023-08-01T03:44:32;17.20;99.90
33741;DHT22;20065;48.380;10.892;2023-08-01T03:47:31;17.10;99.90
33741;DHT22;20065;48.380;10.892;2023-08-01T03:50:21;17.10;99.90
33741;DHT22;20065;48.380;10.892;2023-08-01T03:53:09;17.10;99.90
33741;DHT22;20065;48.380;10.892;2023-08-01T03:55:55;17.00;99.90
33741;DHT22;20065;48.380;10.892;2023-08-01T03:58:42;17.00;99.90
33741;DHT22;20065;48.380;10.892;2023-08-01T04:01:29;17.00;99.90
33741;DHT22;20065;48.380;10.892;2023-08-01T04:04:15;16.90;99.90
33741;DHT22;20065;48.380;10.892;2023-08-01T04:07:01;16.80;99.90
33741;DHT22;20065;48.380;10.892;2023-08-01T04:09:47;16.80;99.90
33741;DHT22;20065;48.380;10.892;2023-08-01T04:12:34;16.80;99.90
33741;DHT22;20065;48.380;10.892;2023-08-01T04:15:20;16.80;99.90
33741;DHT22;20065;48.380;10.892;2023-08-01T04:18:06;16.80;99.90
33741;DHT22;20065;48.380;10.892;2023-08-01T04:20:53;16.90;99.90
33741;DHT22;20065;48.380;10.892;2023-08-01T04:23:39;16.90;99.90
33741;DHT22;20065;48.380;10.892;2023-08-01T04:26:25;17.00;99.90
33741;DHT22;20065;48.380;10.892;2023-08-01T04:29:11;17.10;99.90
33741;DHT22;20065;48.380;10.892;2023-08-01T04:32:01;17.10;99.90
33741;DHT22;20065;48.380;10.892;2023-08-01T04:34:47;17.30;99.90
33741;DHT22;20065;48.380;10.892;2023-08-01T04:37:33;17.50;99.90
33741;DHT22;20065;48.380;10.892;2023-08-01T04:40:19;17.60;99.90
33741;DHT22;20065;48.380;10.892;2023-08-01T04:43:06;17.80;99.90
33741;DHT22;20065;48.380;10.892;2023-08-01T04:45:52;17.70;99.90
33741;DHT22;20065;48.380;10.892;2023-08-01T04:48:38;17.80;99.90
33741;DHT22;20065;48.380;10.892;2023-08-01T04:51:25;17.90;99.90
33741;DHT22;20065;48.380;10.892;2023-08-01T04:54:11;17.90;99.90
33741;DHT22;20065;48.380;10.892;2023-08-01T04:56:57;17.90;99.90
33741;DHT22;20065;48.380;10.892;2023-08-01T04:59:43;17.90;99.90
33741;DHT22;20065;48.380;10.892;2023-08-01T05:02:29;17.80;99.90
33741;DHT22;20065;48.380;10.892;2023-08-01T05:05:16;17.80;99.90
33741;DHT22;20065;48.380;10.892;2023-08-01T05:08:02;17.60;99.90
33741;DHT22;20065;48.380;10.892;2023-08-01T05:10:48;17.40;99.90
33741;DHT22;20065;48.380;10.892;2023-08-01T05:13:34;17.30;99.90
33741;DHT22;20065;48.380;10.892;2023-08-01T05:16:20;17.20;99.90
33741;DHT22;20065;48.380;10.892;2023-08-01T05:19:07;17.10;99.90
33741;DHT22;20065;48.380;10.892;2023-08-01T05:21:53;17.10;99.90
33741;DHT22;20065;48.380;10.892;2023-08-01T05:24:39;17.10;99.90
33741;DHT22;20065;48.380;10.892;2023-08-01T05:27:25;17.10;99.90
33741;DHT22;20065;48.380;10.892;2023-08-01T05:30:12;17.10;99.90
33741;DHT22;20065;48.380;10.892;2023-08-01T05:32:58;17.10;99.90
33741;DHT22;20065;48.380;10.892;2023-08-01T05:35:44;17.20;99.90
33741;DHT22;20065;48.380;10.892;2023-08-01T05:38:30;17.20;99.90
33741;DHT22;20065;48.380;10.892;2023-08-01T05:41:16;17.20;99.90
33741;DHT22;20065;48.380;10.892;2023-08-01T05:44:03;17.30;99.90
33741;DHT22;20065;48.380;10.892;2023-08-01T05:46:49;17.30;99.90
33741;DHT22;20065;48.380;10.892;2023-08-01T05:49:36;17.30;99.90
33741;DHT22;20065;48.380;10.892;2023-08-01T05:52:22;17.60;99.90
33741;DHT22;20065;48.380;10.892;2023-08-01T05:55:08;17.70;99.90
33741;DHT22;20065;48.380;10.892;2023-08-01T05:57:55;17.80;99.90
33741;DHT22;20065;48.380;10.892;2023-08-01T06:00:41;17.80;99.90
33741;DHT22;20065;48.380;10.892;2023-08-01T06:03:27;17.70;99.90
33741;DHT22;20065;48.380;10.892;2023-08-01T06:06:14;17.80;99.90
33741;DHT22;20065;48.380;10.892;2023-08-01T06:09:00;17.70;99.90
33741;DHT22;20065;48.380;10.892;2023-08-01T06:11:46;17.60;99.90
33741;DHT22;20065;48.380;10.892;2023-08-01T06:14:32;17.50;99.90
33741;DHT22;20065;48.380;10.892;2023-08-01T06:17:18;17.50;99.90
33741;DHT22;20065;48.380;10.892;2023-08-01T06:20:05;17.60;99.90
33741;DHT22;20065;48.380;10.892;2023-08-01T06:22:51;17.70;99.90
33741;DHT22;20065;48.380;10.892;2023-08-01T06:25:37;17.70;99.90
33741;DHT22;20065;48.380;10.892;2023-08-01T06:28:24;17.80;99.90
33741;DHT22;20065;48.380;10.892;2023-08-01T06:31:10;17.70;99.90
33741;DHT22;20065;48.380;10.892;2023-08-01T06:33:56;17.60;99.90
33741;DHT22;20065;48.380;10.892;2023-08-01T06:36:42;17.50;99.90
33741;DHT22;20065;48.380;10.892;2023-08-01T06:39:29;17.50;99.90
33741;DHT22;20065;48.380;10.892;2023-08-01T06:42:15;17.50;99.90
33741;DHT22;20065;48.380;10.892;2023-08-01T06:45:02;17.50;99.90
33741;DHT22;20065;48.380;10.892;2023-08-01T06:47:48;17.50;99.90
33741;DHT22;20065;48.380;10.892;2023-08-01T06:50:34;17.50;99.90
33741;DHT22;20065;48.380;10.892;2023-08-01T06:53:21;18.60;99.90
33741;DHT22;20065;48.380;10.892;2023-08-01T06:56:07;17.50;99.90
33741;DHT22;20065;48.380;10.892;2023-08-01T06:58:53;17.60;99.90
33741;DHT22;20065;48.380;10.892;2023-08-01T07:01:40;17.60;99.90
33741;DHT22;20065;48.380;10.892;2023-08-01T07:04:29;17.70;99.90
33741;DHT22;20065;48.380;10.892;2023-08-01T07:07:15;17.80;99.90
33741;DHT22;20065;48.380;10.892;2023-08-01T07:10:01;17.80;99.90
33741;DHT22;20065;48.380;10.892;2023-08-01T07:12:47;17.90;99.90
33741;DHT22;20065;48.380;10.892;2023-08-01T07:15:34;17.90;99.90
33741;DHT22;20065;48.380;10.892;2023-08-01T07:18:20;17.90;99.90
33741;DHT22;20065;48.380;10.892;2023-08-01T07:21:06;18.00;99.90
33741;DHT22;20065;48.380;10.892;2023-08-01T07:23:53;18.00;99.90
33741;DHT22;20065;48.380;10.892;2023-08-01T07:26:39;18.10;99.90
33741;DHT22;20065;48.380;10.892;2023-08-01T07:29:25;18.20;99.90
33741;DHT22;20065;48.380;10.892;2023-08-01T07:32:13;18.20;99.90
33741;DHT22;20065;48.380;10.892;2023-08-01T07:35:00;18.20;99.90
33741;DHT22;20065;48.380;10.892;2023-08-01T07:37:46;18.20;99.90
33741;DHT22;20065;48.380;10.892;2023-08-01T07:40:32;18.20;99.90
33741;DHT22;20065;48.380;10.892;2023-08-01T07:43:21;18.20;99.90
33741;DHT22;20065;48.380;10.892;2023-08-01T07:46:09;18.20;99.90
33741;DHT22;20065;48.380;10.892;2023-08-01T07:48:57;18.10;99.90
33741;DHT22;20065;48.380;10.892;2023-08-01T07:51:45;18.10;99.90
33741;DHT22;20065;48.380;10.892;2023-08-01T07:54:31;18.20;99.90
33741;DHT22;20065;48.380;10.892;2023-08-01T07:57:17;18.20;99.90
33741;DHT22;20065;48.380;10.892;2023-08-01T08:00:04;18.20;99.90
33741;DHT22;20065;48.380;10.892;2023-08-01T08:02:59;18.20;99.90
33741;DHT22;20065;48.380;10.892;2023-08-01T08:05:45;18.20;99.90
33741;DHT22;20065;48.380;10.892;2023-08-01T08:08:31;18.20;99.90
33741;DHT22;20065;48.380;10.892;2023-08-01T08:11:19;18.20;99.90
33741;DHT22;20065;48.380;10.892;2023-08-01T08:14:05;18.20;99.90
33741;DHT22;20065;48.380;10.892;2023-08-01T08:16:51;18.20;99.90
33741;DHT22;20065;48.380;10.892;2023-08-01T08:19:38;18.20;99.90
33741;DHT22;20065;48.380;10.892;2023-08-01T08:22:24;18.20;99.90
33741;DHT22;20065;48.380;10.892;2023-08-01T08:25:10;18.30;99.90
33741;DHT22;20065;48.380;10.892;2023-08-01T08:27:56;18.30;99.90
33741;DHT22;20065;48.380;10.892;2023-08-01T08:30:42;18.30;99.90
33741;DHT22;20065;48.380;10.892;2023-08-01T08:33:29;18.30;99.90
33741;DHT22;20065;48.380;10.892;2023-08-01T08:36:15;18.30;99.90
33741;DHT22;20065;48.380;10.892;2023-08-01T08:39:01;18.30;99.90
33741;DHT22;20065;48.380;10.892;2023-08-01T08:41:52;18.40;99.90
33741;DHT22;20065;48.380;10.892;2023-08-01T08:44:43;18.40;99.90
33741;DHT22;20065;48.380;10.892;2023-08-01T08:47:31;18.40;99.90
33741;DHT22;20065;48.380;10.892;2023-08-01T08:50:22;18.50;99.90
33741;DHT22;20065;48.380;10.892;2023-08-01T08:53:09;18.60;99.90
33741;DHT22;20065;48.380;10.892;2023-08-01T08:55:59;18.60;99.90
33741;DHT22;20065;48.380;10.892;2023-08-01T08:58:46;18.60;99.90
33741;DHT22;20065;48.380;10.892;2023-08-01T09:01:33;18.60;99.90
33741;DHT22;20065;48.380;10.892;2023-08-01T09:04:20;18.70;99.90
33741;DHT22;20065;48.380;10.892;2023-08-01T09:07:08;18.80;99.90
33741;DHT22;20065;48.380;10.892;2023-08-01T09:09:55;18.80;99.90
33741;DHT22;20065;48.380;10.892;2023-08-01T09:12:41;18.80;99.90
33741;DHT22;20065;48.380;10.892;2023-08-01T09:15:28;18.80;99.90
33741;DHT22;20065;48.380;10.892;2023-08-01T09:18:14;18.80;99.90
33741;DHT22;20065;48.380;10.892;2023-08-01T09:21:00;18.80;99.90
33741;DHT22;20065;48.380;10.892;2023-08-01T09:23:48;18.80;99.90
33741;DHT22;20065;48.380;10.892;2023-08-01T09:26:34;18.80;99.90
33741;DHT22;20065;48.380;10.892;2023-08-01T09:29:20;18.90;99.90
33741;DHT22;20065;48.380;10.892;2023-08-01T09:32:14;18.90;99.90
33741;DHT22;20065;48.380;10.892;2023-08-01T09:35:00;19.00;99.90
33741;DHT22;20065;48.380;10.892;2023-08-01T09:37:46;19.70;99.90
33741;DHT22;20065;48.380;10.892;2023-08-01T09:40:36;18.90;99.90
33741;DHT22;20065;48.380;10.892;2023-08-01T09:43:23;18.80;99.90
33741;DHT22;20065;48.380;10.892;2023-08-01T09:46:11;18.70;99.90
33741;DHT22;20065;48.380;10.892;2023-08-01T09:49:07;18.50;99.90
33741;DHT22;20065;48.380;10.892;2023-08-01T09:51:53;18.50;99.90
33741;DHT22;20065;48.380;10.892;2023-08-01T09:54:40;18.20;99.90
33741;DHT22;20065;48.380;10.892;2023-08-01T09:57:29;17.90;99.90
33741;DHT22;20065;48.380;10.892;2023-08-01T10:00:15;17.80;99.90
33741;DHT22;20065;48.380;10.892;2023-08-01T10:03:03;17.70;99.90
33741;DHT22;20065;48.380;10.892;2023-08-01T10:05:50;17.70;99.90
33741;DHT22;20065;48.380;10.892;2023-08-01T10:08:40;17.40;99.90
33741;DHT22;20065;48.380;10.892;2023-08-01T10:11:26;17.30;99.90
33741;DHT22;20065;48.380;10.892;2023-08-01T10:14:14;17.20;99.90
33741;DHT22;20065;48.380;10.892;2023-08-01T10:17:02;17.00;99.90
33741;DHT22;20065;48.380;10.892;2023-08-01T10:19:49;16.90;99.90
33741;DHT22;20065;48.380;10.892;2023-08-01T10:22:37;16.90;99.90
33741;DHT22;20065;48.380;10.892;2023-08-01T10:25:24;16.90;99.90
33741;DHT22;20065;48.380;10.892;2023-08-01T10:28:12;16.80;99.90
33741;DHT22;20065;48.380;10.892;2023-08-01T10:34:06;16.90;99.90
33741;DHT22;20065;48.380;10.892;2023-08-01T10:36:57;16.90;99.90
33741;DHT22;20065;48.380;10.892;2023-08-01T10:39:56;16.90;99.90
33741;DHT22;20065;48.380;10.892;2023-08-01T10:42:44;16.90;99.90
33741;DHT22;20065;48.380;10.892;2023-08-01T10:45:31;16.90;99.90
33741;DHT22;20065;48.380;10.892;2023-08-01T10:48:20;17.00;99.90
33741;DHT22;20065;48.380;10.892;2023-08-01T10:51:06;17.00;99.90
33741;DHT22;20065;48.380;10.892;2023-08-01T10:53:52;17.10;99.90
33741;DHT22;20065;48.380;10.892;2023-08-01T10:56:38;17.10;99.90
33741;DHT22;20065;48.380;10.892;2023-08-01T10:59:31;17.20;99.90
33741;DHT22;20065;48.380;10.892;2023-08-01T11:02:28;17.30;99.90
33741;DHT22;20065;48.380;10.892;2023-08-01T11:05:14;17.30;99.90
33741;DHT22;20065;48.380;10.892;2023-08-01T11:08:02;18.20;99.90
33741;DHT22;20065;48.380;10.892;2023-08-01T11:10:49;17.30;99.90
33741;DHT22;20065;48.380;10.892;2023-08-01T11:13:36;17.30;99.90
33741;DHT22;20065;48.380;10.892;2023-08-01T11:16:22;17.30;99.90
33741;DHT22;20065;48.380;10.892;2023-08-01T11:19:28;17.30;99.90
33741;DHT22;20065;48.380;10.892;2023-08-01T11:22:15;17.50;99.90
33741;DHT22;20065;48.380;10.892;2023-08-01T11:25:02;17.40;99.90
33741;DHT22;20065;48.380;10.892;2023-08-01T11:27:48;17.50;99.90
33741;DHT22;20065;48.380;10.892;2023-08-01T11:30:34;17.40;99.90
33741;DHT22;20065;48.380;10.892;2023-08-01T11:33:24;17.30;99.90
33741;DHT22;20065;48.380;10.892;2023-08-01T11:36:10;17.10;99.90
33741;DHT22;20065;48.380;10.892;2023-08-01T11:38:57;17.00;99.90
33741;DHT22;20065;48.380;10.892;2023-08-01T11:41:44;17.00;99.90
33741;DHT22;20065;48.380;10.892;2023-08-01T11:44:31;17.00;99.90
33741;DHT22;20065;48.380;10.892;2023-08-01T11:47:21;17.10;99.90
33741;DHT22;20065;48.380;10.892;2023-08-01T11:50:07;17.00;99.90
33741;DHT22;20065;48.380;10.892;2023-08-01T11:52:53;17.10;99.90
33741;DHT22;20065;48.380;10.892;2023-08-01T11:55:40;17.20;99.90
33741;DHT22;20065;48.380;10.892;2023-08-01T11:58:30;17.20;99.90
33741;DHT22;20065;48.380;10.892;2023-08-01T12:01:17;17.20;99.90
33741;DHT22;20065;48.380;10.892;2023-08-01T12:04:04;17.30;99.90
33741;DHT22;20065;48.380;10.892;2023-08-01T12:06:53;17.20;99.90
33741;DHT22;20065;48.380;10.892;2023-08-01T12:09:41;17.20;99.90
33741;DHT22;20065;48.380;10.892;2023-08-01T12:12:28;17.20;99.90
33741;DHT22;20065;48.380;10.892;2023-08-01T12:15:15;17.20;99.90
33741;DHT22;20065;48.380;10.892;2023-08-01T12:18:01;17.10;99.90
33741;DHT22;20065;48.380;10.892;2023-08-01T12:20:47;16.90;99.90
33741;DHT22;20065;48.380;10.892;2023-08-01T12:23:35;16.80;99.90
33741;DHT22;20065;48.380;10.892;2023-08-01T12:26:22;16.70;99.90
33741;DHT22;20065;48.380;10.892;2023-08-01T12:29:08;16.80;99.90
33741;DHT22;20065;48.380;10.892;2023-08-01T12:31:54;16.80;99.90
33741;DHT22;20065;48.380;10.892;2023-08-01T12:34:40;16.80;99.90
33741;DHT22;20065;48.380;10.892;2023-08-01T12:37:30;16.80;99.90
33741;DHT22;20065;48.380;10.892;2023-08-01T12:40:16;16.80;99.90
33741;DHT22;20065;48.380;10.892;2023-08-01T12:43:04;16.80;99.90
33741;DHT22;20065;48.380;10.892;2023-08-01T12:45:54;16.80;99.90
33741;DHT22;20065;48.380;10.892;2023-08-01T12:48:41;16.70;99.90
33741;DHT22;20065;48.380;10.892;2023-08-01T12:51:27;16.80;99.90
33741;DHT22;20065;48.380;10.892;2023-08-01T12:54:13;17.00;99.90
33741;DHT22;20065;48.380;10.892;2023-08-01T12:57:00;17.10;99.90
33741;DHT22;20065;48.380;10.892;2023-08-01T12:59:46;17.30;99.90
33741;DHT22;20065;48.380;10.892;2023-08-01T13:02:32;17.30;99.90
33741;DHT22;20065;48.380;10.892;2023-08-01T13:05:22;17.20;99.90
33741;DHT22;20065;48.380;10.892;2023-08-01T13:08:09;17.30;99.90
33741;DHT22;20065;48.380;10.892;2023-08-01T13:10:55;17.30;99.90
33741;DHT22;20065;48.380;10.892;2023-08-01T13:13:41;17.30;99.90
33741;DHT22;20065;48.380;10.892;2023-08-01T13:16:28;17.40;99.90
33741;DHT22;20065;48.380;10.892;2023-08-01T13:19:14;17.30;99.90
33741;DHT22;20065;48.380;10.892;2023-08-01T13:22:00;17.20;99.90
33741;DHT22;20065;48.380;10.892;2023-08-01T13:24:47;17.20;99.90
33741;DHT22;20065;48.380;10.892;2023-08-01T13:27:35;17.20;99.90
33741;DHT22;20065;48.380;10.892;2023-08-01T13:30:21;17.30;99.90
33741;DHT22;20065;48.380;10.892;2023-08-01T13:33:07;17.30;99.90
33741;DHT22;20065;48.380;10.892;2023-08-01T13:35:53;17.20;99.90
33741;DHT22;20065;48.380;10.892;2023-08-01T13:38:40;17.20;99.90
33741;DHT22;20065;48.380;10.892;2023-08-01T13:41:26;17.30;99.90
33741;DHT22;20065;48.380;10.892;2023-08-01T13:44:12;17.30;99.90
33741;DHT22;20065;48.380;10.892;2023-08-01T13:46:58;17.30;99.90
33741;DHT22;20065;48.380;10.892;2023-08-01T13:49:51;17.30;99.90
33741;DHT22;20065;48.380;10.892;2023-08-01T13:52:37;17.20;99.90
33741;DHT22;20065;48.380;10.892;2023-08-01T13:55:24;17.30;99.90
33741;DHT22;20065;48.380;10.892;2023-08-01T13:58:10;17.50;99.90
33741;DHT22;20065;48.380;10.892;2023-08-01T14:01:02;17.60;99.90
33741;DHT22;20065;48.380;10.892;2023-08-01T14:03:48;17.90;99.90
33741;DHT22;20065;48.380;10.892;2023-08-01T14:06:37;18.10;99.90
33741;DHT22;20065;48.380;10.892;2023-08-01T14:09:25;18.30;99.90
33741;DHT22;20065;48.380;10.892;2023-08-01T14:12:11;18.50;99.90
33741;DHT22;20065;48.380;10.892;2023-08-01T14:14:57;18.60;99.90
33741;DHT22;20065;48.380;10.892;2023-08-01T14:17:43;18.70;99.90
33741;DHT22;20065;48.380;10.892;2023-08-01T14:20:29;18.90;99.90
33741;DHT22;20065;48.380;10.892;2023-08-01T14:23:15;19.00;99.90
33741;DHT22;20065;48.380;10.892;2023-08-01T14:26:02;19.00;99.90
33741;DHT22;20065;48.380;10.892;2023-08-01T14:28:48;19.20;99.90
33741;DHT22;20065;48.380;10.892;2023-08-01T14:31:35;19.20;99.90
33741;DHT22;20065;48.380;10.892;2023-08-01T14:34:22;19.30;99.90
33741;DHT22;20065;48.380;10.892;2023-08-01T14:37:08;19.40;99.90
33741;DHT22;20065;48.380;10.892;2023-08-01T14:39:54;19.50;99.90
33741;DHT22;20065;48.380;10.892;2023-08-01T14:42:40;19.50;99.90
33741;DHT22;20065;48.380;10.892;2023-08-01T14:45:26;19.50;99.90
33741;DHT22;20065;48.380;10.892;2023-08-01T14:48:12;19.50;99.90
33741;DHT22;20065;48.380;10.892;2023-08-01T14:50:59;19.40;99.90
33741;DHT22;20065;48.380;10.892;2023-08-01T14:53:45;19.40;99.90
33741;DHT22;20065;48.380;10.892;2023-08-01T14:56:31;19.30;99.90
33741;DHT22;20065;48.380;10.892;2023-08-01T14:59:18;19.20;99.90
33741;DHT22;20065;48.380;10.892;2023-08-01T15:02:05;19.20;99.90
33741;DHT22;20065;48.380;10.892;2023-08-01T15:04:53;19.20;99.90
33741;DHT22;20065;48.380;10.892;2023-08-01T15:07:41;19.10;99.90
33741;DHT22;20065;48.380;10.892;2023-08-01T15:10:27;19.10;99.90
33741;DHT22;20065;48.380;10.892;2023-08-01T15:13:13;19.10;99.90
33741;DHT22;20065;48.380;10.892;2023-08-01T15:16:00;19.00;99.90
33741;DHT22;20065;48.380;10.892;2023-08-01T15:18:46;18.90;99.90
33741;DHT22;20065;48.380;10.892;2023-08-01T15:21:32;18.60;99.90
33741;DHT22;20065;48.380;10.892;2023-08-01T15:24:19;18.40;99.90
33741;DHT22;20065;48.380;10.892;2023-08-01T15:27:05;18.40;99.90
33741;DHT22;20065;48.380;10.892;2023-08-01T15:29:51;18.40;99.90
33741;DHT22;20065;48.380;10.892;2023-08-01T15:32:38;18.40;99.90
33741;DHT22;20065;48.380;10.892;2023-08-01T15:35:28;18.50;99.90
33741;DHT22;20065;48.380;10.892;2023-08-01T15:38:16;18.50;99.90
33741;DHT22;20065;48.380;10.892;2023-08-01T15:41:02;18.60;99.90
33741;DHT22;20065;48.380;10.892;2023-08-01T15:43:53;18.60;99.90
33741;DHT22;20065;48.380;10.892;2023-08-01T15:46:40;18.50;99.90
33741;DHT22;20065;48.380;10.892;2023-08-01T15:49:26;18.70;99.90
33741;DHT22;20065;48.380;10.892;2023-08-01T15:52:12;18.80;99.90
33741;DHT22;20065;48.380;10.892;2023-08-01T15:54:59;18.80;99.90
33741;DHT22;20065;48.380;10.892;2023-08-01T15:57:45;18.90;99.90
33741;DHT22;20065;48.380;10.892;2023-08-01T16:00:31;18.90;99.90
33741;DHT22;20065;48.380;10.892;2023-08-01T16:03:19;19.00;99.90
33741;DHT22;20065;48.380;10.892;2023-08-01T16:06:16;19.00;99.90
33741;DHT22;20065;48.380;10.892;2023-08-01T16:09:02;19.00;99.90
33741;DHT22;20065;48.380;10.892;2023-08-01T16:11:49;19.00;99.90
33741;DHT22;20065;48.380;10.892;2023-08-01T16:14:35;19.10;99.90
33741;DHT22;20065;48.380;10.892;2023-08-01T16:17:22;19.20;99.90
33741;DHT22;20065;48.380;10.892;2023-08-01T16:20:09;19.20;99.90
33741;DHT22;20065;48.380;10.892;2023-08-01T16:22:57;19.20;99.90
33741;DHT22;20065;48.380;10.892;2023-08-01T16:25:43;19.20;99.90
33741;DHT22;20065;48.380;10.892;2023-08-01T16:28:29;19.10;99.90
33741;DHT22;20065;48.380;10.892;2023-08-01T16:31:15;19.00;99.90
33741;DHT22;20065;48.380;10.892;2023-08-01T16:34:02;19.50;99.90
33741;DHT22;20065;48.380;10.892;2023-08-01T16:36:48;18.80;99.90
33741;DHT22;20065;48.380;10.892;2023-08-01T16:39:34;18.70;99.90
33741;DHT22;20065;48.380;10.892;2023-08-01T16:42:25;18.70;99.90
33741;DHT22;20065;48.380;10.892;2023-08-01T16:45:12;18.80;99.90
33741;DHT22;20065;48.380;10.892;2023-08-01T16:47:58;18.80;99.90
33741;DHT22;20065;48.380;10.892;2023-08-01T16:50:45;18.80;99.90
33741;DHT22;20065;48.380;10.892;2023-08-01T16:53:32;18.80;99.90
33741;DHT22;20065;48.380;10.892;2023-08-01T16:56:21;18.70;99.90
33741;DHT22;20065;48.380;10.892;2023-08-01T16:59:07;18.70;99.90
33741;DHT22;20065;48.380;10.892;2023-08-01T17:01:53;18.70;99.90
33741;DHT22;20065;48.380;10.892;2023-08-01T17:04:40;18.70;99.90
33741;DHT22;20065;48.380;10.892;2023-08-01T17:07:27;18.70;99.90
33741;DHT22;20065;48.380;10.892;2023-08-01T17:10:13;18.70;99.90
33741;DHT22;20065;48.380;10.892;2023-08-01T17:13:04;18.80;99.90
33741;DHT22;20065;48.380;10.892;2023-08-01T17:15:53;18.80;99.90
33741;DHT22;20065;48.380;10.892;2023-08-01T17:18:39;18.80;99.90
33741;DHT22;20065;48.380;10.892;2023-08-01T17:21:27;18.90;99.90
33741;DHT22;20065;48.380;10.892;2023-08-01T17:24:20;18.90;99.90